sensor_id;sensor_type;location;lat;lon;timestamp;P1;durP1;ratioP1;P2;durP2;ratioP2
58372;SDS011;44177;43.356;27.672;2022-12-16T00:01:01;7.93;;;4.70;;
58372;SDS011;44177;43.356;27.672;2022-12-16T00:03:34;6.70;;;4.93;;
58372;SDS011;44177;43.356;27.672;2022-12-16T00:05:59;6.57;;;4.35;;
58372;SDS011;44177;43.356;27.672;2022-12-16T00:08:27;6.85;;;4.63;;
58372;SDS011;44177;43.356;27.672;2022-12-16T00:10:57;8.32;;;5.95;;
58372;SDS011;44177;43.356;27.672;2022-12-16T00:13:23;6.25;;;5.38;;
58372;SDS011;44177;43.356;27.672;2022-12-16T00:15:49;8.40;;;5.75;;
58372;SDS011;44177;43.356;27.672;2022-12-16T00:18:14;12.05;;;7.50;;
58372;SDS011;44177;43.356;27.672;2022-12-16T00:20:46;11.25;;;7.35;;
58372;SDS011;44177;43.356;27.672;2022-12-16T00:23:14;10.15;;;6.78;;
58372;SDS011;44177;43.356;27.672;2022-12-16T00:25:43;11.38;;;7.85;;
58372;SDS011;44177;43.356;27.672;2022-12-16T00:28:10;9.57;;;6.82;;
58372;SDS011;44177;43.356;27.672;2022-12-16T00:30:36;12.73;;;7.68;;
58372;SDS011;44177;43.356;27.672;2022-12-16T00:33:02;9.15;;;6.65;;
58372;SDS011;44177;43.356;27.672;2022-12-16T00:35:29;10.00;;;6.72;;
58372;SDS011;44177;43.356;27.672;2022-12-16T00:37:54;9.07;;;6.25;;
58372;SDS011;44177;43.356;27.672;2022-12-16T00:40:20;9.02;;;5.97;;
58372;SDS011;44177;43.356;27.672;2022-12-16T00:42:46;10.40;;;6.68;;
58372;SDS011;44177;43.356;27.672;2022-12-16T00:45:11;8.93;;;6.20;;
58372;SDS011;44177;43.356;27.672;2022-12-16T00:47:37;11.50;;;6.93;;
58372;SDS011;44177;43.356;27.672;2022-12-16T00:50:02;10.90;;;6.95;;
58372;SDS011;44177;43.356;27.672;2022-12-16T00:52:28;9.13;;;6.30;;
58372;SDS011;44177;43.356;27.672;2022-12-16T00:54:54;8.80;;;6.32;;
58372;SDS011;44177;43.356;27.672;2022-12-16T00:57:20;10.20;;;7.05;;
58372;SDS011;44177;43.356;27.672;2022-12-16T00:59:46;10.38;;;7.72;;
58372;SDS011;44177;43.356;27.672;2022-12-16T01:02:11;10.75;;;7.05;;
58372;SDS011;44177;43.356;27.672;2022-12-16T01:04:37;10.27;;;7.13;;
58372;SDS011;44177;43.356;27.672;2022-12-16T01:07:02;12.18;;;8.32;;
58372;SDS011;44177;43.356;27.672;2022-12-16T01:09:27;15.30;;;9.65;;
58372;SDS011;44177;43.356;27.672;2022-12-16T01:11:53;14.55;;;9.30;;
58372;SDS011;44177;43.356;27.672;2022-12-16T01:14:18;14.98;;;8.95;;
58372;SDS011;44177;43.356;27.672;2022-12-16T01:16:44;18.08;;;9.60;;
58372;SDS011;44177;43.356;27.672;2022-12-16T01:19:09;18.75;;;10.07;;
58372;SDS011;44177;43.356;27.672;2022-12-16T01:21:35;17.00;;;9.48;;
58372;SDS011;44177;43.356;27.672;2022-12-16T01:24:01;18.63;;;9.98;;
58372;SDS011;44177;43.356;27.672;2022-12-16T01:26:26;16.85;;;9.77;;
58372;SDS011;44177;43.356;27.672;2022-12-16T01:28:52;18.27;;;10.40;;
58372;SDS011;44177;43.356;27.672;2022-12-16T01:31:18;15.93;;;9.40;;
58372;SDS011;44177;43.356;27.672;2022-12-16T01:33:44;16.60;;;9.93;;
58372;SDS011;44177;43.356;27.672;2022-12-16T01:36:10;17.45;;;9.68;;
58372;SDS011;44177;43.356;27.672;2022-12-16T01:38:36;20.30;;;11.05;;
58372;SDS011;44177;43.356;27.672;2022-12-16T01:41:02;23.50;;;11.55;;
58372;SDS011;44177;43.356;27.672;2022-12-16T01:43:29;19.73;;;11.75;;
58372;SDS011;44177;43.356;27.672;2022-12-16T01:45:59;22.20;;;12.77;;
58372;SDS011;44177;43.356;27.672;2022-12-16T01:50:56;22.20;;;13.15;;
58372;SDS011;44177;43.356;27.672;2022-12-16T01:53:26;23.92;;;14.48;;
58372;SDS011;44177;43.356;27.672;2022-12-16T01:55:52;23.60;;;14.10;;
58372;SDS011;44177;43.356;27.672;2022-12-16T01:58:21;26.35;;;14.45;;
58372;SDS011;44177;43.356;27.672;2022-12-16T02:00:50;23.55;;;13.82;;
58372;SDS011;44177;43.356;27.672;2022-12-16T02:03:15;20.33;;;12.85;;
58372;SDS011;44177;43.356;27.672;2022-12-16T02:05:41;23.88;;;13.52;;
58372;SDS011;44177;43.356;27.672;2022-12-16T02:40:26;22.48;;;13.73;;
58372;SDS011;44177;43.356;27.672;2022-12-16T02:42:59;20.67;;;13.38;;
58372;SDS011;44177;43.356;27.672;2022-12-16T02:45:31;20.30;;;13.50;;
58372;SDS011;44177;43.356;27.672;2022-12-16T02:47:59;21.15;;;13.75;;
58372;SDS011;44177;43.356;27.672;2022-12-16T02:53:16;21.48;;;13.70;;
58372;SDS011;44177;43.356;27.672;2022-12-16T02:56:03;21.95;;;13.73;;
58372;SDS011;44177;43.356;27.672;2022-12-16T02:58:39;22.92;;;13.88;;
58372;SDS011;44177;43.356;27.672;2022-12-16T03:03:44;25.13;;;15.18;;
58372;SDS011;44177;43.356;27.672;2022-12-16T03:06:17;25.42;;;15.20;;
58372;SDS011;44177;43.356;27.672;2022-12-16T03:08:46;23.15;;;15.25;;
58372;SDS011;44177;43.356;27.672;2022-12-16T03:11:16;25.10;;;16.50;;
58372;SDS011;44177;43.356;27.672;2022-12-16T03:13:43;24.33;;;15.60;;
58372;SDS011;44177;43.356;27.672;2022-12-16T03:16:14;22.65;;;14.23;;
58372;SDS011;44177;43.356;27.672;2022-12-16T03:18:43;23.83;;;14.88;;
58372;SDS011;44177;43.356;27.672;2022-12-16T03:21:14;21.92;;;14.82;;
58372;SDS011;44177;43.356;27.672;2022-12-16T03:23:49;23.13;;;14.82;;
58372;SDS011;44177;43.356;27.672;2022-12-16T03:26:20;23.13;;;15.18;;
58372;SDS011;44177;43.356;27.672;2022-12-16T03:28:55;23.00;;;14.88;;
58372;SDS011;44177;43.356;27.672;2022-12-16T03:36:53;21.40;;;14.20;;
58372;SDS011;44177;43.356;27.672;2022-12-16T03:39:23;23.75;;;14.10;;
58372;SDS011;44177;43.356;27.672;2022-12-16T03:41:51;22.45;;;14.02;;
58372;SDS011;44177;43.356;27.672;2022-12-16T03:44:21;21.17;;;13.25;;
58372;SDS011;44177;43.356;27.672;2022-12-16T03:46:49;20.75;;;13.43;;
58372;SDS011;44177;43.356;27.672;2022-12-16T03:49:15;20.52;;;13.52;;
58372;SDS011;44177;43.356;27.672;2022-12-16T03:51:41;23.70;;;13.43;;
58372;SDS011;44177;43.356;27.672;2022-12-16T03:54:06;21.73;;;13.15;;
58372;SDS011;44177;43.356;27.672;2022-12-16T03:56:32;21.80;;;13.43;;
58372;SDS011;44177;43.356;27.672;2022-12-16T03:58:57;21.63;;;12.95;;
58372;SDS011;44177;43.356;27.672;2022-12-16T04:01:23;22.63;;;12.70;;
58372;SDS011;44177;43.356;27.672;2022-12-16T04:03:48;24.42;;;13.50;;
58372;SDS011;44177;43.356;27.672;2022-12-16T04:06:14;23.77;;;13.88;;
58372;SDS011;44177;43.356;27.672;2022-12-16T04:08:43;20.35;;;12.30;;
58372;SDS011;44177;43.356;27.672;2022-12-16T04:11:10;22.50;;;13.13;;
58372;SDS011;44177;43.356;27.672;2022-12-16T04:13:55;25.45;;;13.57;;
58372;SDS011;44177;43.356;27.672;2022-12-16T04:16:38;27.52;;;14.45;;
58372;SDS011;44177;43.356;27.672;2022-12-16T04:19:23;23.40;;;14.15;;
58372;SDS011;44177;43.356;27.672;2022-12-16T04:22:13;31.80;;;14.05;;
58372;SDS011;44177;43.356;27.672;2022-12-16T04:25:06;31.67;;;15.27;;
58372;SDS011;44177;43.356;27.672;2022-12-16T04:27:37;30.02;;;15.10;;
58372;SDS011;44177;43.356;27.672;2022-12-16T04:30:03;33.83;;;15.70;;
58372;SDS011;44177;43.356;27.672;2022-12-16T04:32:48;34.35;;;15.23;;
58372;SDS011;44177;43.356;27.672;2022-12-16T04:35:35;32.38;;;15.18;;
58372;SDS011;44177;43.356;27.672;2022-12-16T04:38:19;29.95;;;16.13;;
58372;SDS011;44177;43.356;27.672;2022-12-16T04:41:03;31.30;;;15.73;;
58372;SDS011;44177;43.356;27.672;2022-12-16T04:43:47;31.17;;;15.73;;
58372;SDS011;44177;43.356;27.672;2022-12-16T04:46:31;32.00;;;17.05;;
58372;SDS011;44177;43.356;27.672;2022-12-16T04:49:15;32.30;;;15.48;;
58372;SDS011;44177;43.356;27.672;2022-12-16T04:51:59;37.25;;;17.40;;
58372;SDS011;44177;43.356;27.672;2022-12-16T04:54:43;32.15;;;15.07;;
58372;SDS011;44177;43.356;27.672;2022-12-16T04:57:27;37.80;;;16.85;;
58372;SDS011;44177;43.356;27.672;2022-12-16T05:00:11;34.97;;;17.20;;
58372;SDS011;44177;43.356;27.672;2022-12-16T05:02:56;35.97;;;16.00;;
58372;SDS011;44177;43.356;27.672;2022-12-16T05:05:40;37.58;;;16.27;;
58372;SDS011;44177;43.356;27.672;2022-12-16T05:08:25;35.83;;;15.60;;
58372;SDS011;44177;43.356;27.672;2022-12-16T05:11:09;40.28;;;16.23;;
58372;SDS011;44177;43.356;27.672;2022-12-16T05:13:53;38.72;;;16.40;;
58372;SDS011;44177;43.356;27.672;2022-12-16T05:16:37;39.45;;;16.58;;
58372;SDS011;44177;43.356;27.672;2022-12-16T05:19:21;44.63;;;16.55;;
58372;SDS011;44177;43.356;27.672;2022-12-16T05:22:04;35.13;;;16.40;;
58372;SDS011;44177;43.356;27.672;2022-12-16T05:24:48;29.33;;;14.68;;
58372;SDS011;44177;43.356;27.672;2022-12-16T05:27:33;33.10;;;14.25;;
58372;SDS011;44177;43.356;27.672;2022-12-16T05:30:17;27.05;;;12.82;;
58372;SDS011;44177;43.356;27.672;2022-12-16T05:33:01;22.80;;;12.35;;
58372;SDS011;44177;43.356;27.672;2022-12-16T05:35:45;19.38;;;11.43;;
58372;SDS011;44177;43.356;27.672;2022-12-16T05:38:29;25.63;;;11.40;;
58372;SDS011;44177;43.356;27.672;2022-12-16T05:41:13;21.75;;;11.13;;
58372;SDS011;44177;43.356;27.672;2022-12-16T05:43:57;20.52;;;10.65;;
58372;SDS011;44177;43.356;27.672;2022-12-16T05:46:41;20.80;;;10.45;;
58372;SDS011;44177;43.356;27.672;2022-12-16T05:49:25;16.25;;;9.15;;
58372;SDS011;44177;43.356;27.672;2022-12-16T05:52:09;15.82;;;9.20;;
58372;SDS011;44177;43.356;27.672;2022-12-16T05:54:53;18.45;;;8.85;;
58372;SDS011;44177;43.356;27.672;2022-12-16T05:57:37;13.25;;;8.27;;
58372;SDS011;44177;43.356;27.672;2022-12-16T06:00:21;12.25;;;7.82;;
58372;SDS011;44177;43.356;27.672;2022-12-16T06:03:05;9.38;;;6.88;;
58372;SDS011;44177;43.356;27.672;2022-12-16T06:05:49;14.02;;;7.40;;
58372;SDS011;44177;43.356;27.672;2022-12-16T06:08:33;13.52;;;6.82;;
58372;SDS011;44177;43.356;27.672;2022-12-16T06:11:17;8.32;;;6.53;;
58372;SDS011;44177;43.356;27.672;2022-12-16T06:14:00;9.35;;;6.50;;
58372;SDS011;44177;43.356;27.672;2022-12-16T06:16:44;10.05;;;6.32;;
58372;SDS011;44177;43.356;27.672;2022-12-16T06:19:28;10.77;;;6.07;;
58372;SDS011;44177;43.356;27.672;2022-12-16T06:22:12;9.55;;;6.13;;
58372;SDS011;44177;43.356;27.672;2022-12-16T06:24:56;8.00;;;5.65;;
58372;SDS011;44177;43.356;27.672;2022-12-16T06:27:40;7.95;;;5.82;;
58372;SDS011;44177;43.356;27.672;2022-12-16T06:30:24;7.85;;;6.70;;
58372;SDS011;44177;43.356;27.672;2022-12-16T06:33:08;9.00;;;6.35;;
58372;SDS011;44177;43.356;27.672;2022-12-16T06:35:52;8.70;;;5.60;;
58372;SDS011;44177;43.356;27.672;2022-12-16T06:38:36;8.82;;;5.97;;
58372;SDS011;44177;43.356;27.672;2022-12-16T06:41:20;8.70;;;5.38;;
58372;SDS011;44177;43.356;27.672;2022-12-16T06:44:04;7.50;;;6.00;;
58372;SDS011;44177;43.356;27.672;2022-12-16T06:46:48;8.27;;;6.13;;
58372;SDS011;44177;43.356;27.672;2022-12-16T06:49:32;8.98;;;5.82;;
58372;SDS011;44177;43.356;27.672;2022-12-16T06:52:16;8.15;;;5.82;;
58372;SDS011;44177;43.356;27.672;2022-12-16T06:55:00;7.95;;;5.60;;
58372;SDS011;44177;43.356;27.672;2022-12-16T06:57:44;8.30;;;5.55;;
58372;SDS011;44177;43.356;27.672;2022-12-16T07:00:28;10.00;;;5.65;;
58372;SDS011;44177;43.356;27.672;2022-12-16T07:03:12;9.20;;;5.47;;
58372;SDS011;44177;43.356;27.672;2022-12-16T07:05:55;8.68;;;6.07;;
58372;SDS011;44177;43.356;27.672;2022-12-16T07:08:39;12.00;;;6.72;;
58372;SDS011;44177;43.356;27.672;2022-12-16T07:11:23;9.27;;;6.43;;
58372;SDS011;44177;43.356;27.672;2022-12-16T07:14:07;11.05;;;6.63;;
58372;SDS011;44177;43.356;27.672;2022-12-16T07:16:51;10.82;;;6.53;;
58372;SDS011;44177;43.356;27.672;2022-12-16T07:19:35;14.75;;;6.70;;
58372;SDS011;44177;43.356;27.672;2022-12-16T07:22:19;12.85;;;7.35;;
58372;SDS011;44177;43.356;27.672;2022-12-16T07:25:03;12.05;;;7.00;;
58372;SDS011;44177;43.356;27.672;2022-12-16T07:27:48;16.30;;;7.97;;
58372;SDS011;44177;43.356;27.672;2022-12-16T07:30:32;17.40;;;9.05;;
58372;SDS011;44177;43.356;27.672;2022-12-16T07:33:15;14.38;;;9.63;;
58372;SDS011;44177;43.356;27.672;2022-12-16T07:36:04;18.65;;;8.98;;
58372;SDS011;44177;43.356;27.672;2022-12-16T07:38:48;17.33;;;9.25;;
58372;SDS011;44177;43.356;27.672;2022-12-16T07:41:32;19.55;;;9.45;;
58372;SDS011;44177;43.356;27.672;2022-12-16T07:44:16;22.25;;;9.65;;
58372;SDS011;44177;43.356;27.672;2022-12-16T07:47:00;20.83;;;9.68;;
58372;SDS011;44177;43.356;27.672;2022-12-16T07:49:44;20.77;;;10.68;;
58372;SDS011;44177;43.356;27.672;2022-12-16T07:52:28;18.35;;;10.60;;
58372;SDS011;44177;43.356;27.672;2022-12-16T07:55:12;16.02;;;10.63;;
58372;SDS011;44177;43.356;27.672;2022-12-16T07:57:56;21.25;;;10.57;;
58372;SDS011;44177;43.356;27.672;2022-12-16T08:00:40;16.80;;;10.32;;
58372;SDS011;44177;43.356;27.672;2022-12-16T08:03:23;21.83;;;11.02;;
58372;SDS011;44177;43.356;27.672;2022-12-16T08:06:08;21.58;;;10.10;;
58372;SDS011;44177;43.356;27.672;2022-12-16T08:08:52;18.02;;;10.75;;
58372;SDS011;44177;43.356;27.672;2022-12-16T08:11:35;20.98;;;10.88;;
58372;SDS011;44177;43.356;27.672;2022-12-16T08:14:19;18.73;;;10.00;;
58372;SDS011;44177;43.356;27.672;2022-12-16T08:17:03;20.35;;;10.15;;
58372;SDS011;44177;43.356;27.672;2022-12-16T08:19:47;22.75;;;10.30;;
58372;SDS011;44177;43.356;27.672;2022-12-16T08:22:31;18.95;;;10.82;;
58372;SDS011;44177;43.356;27.672;2022-12-16T08:25:15;25.80;;;11.70;;
58372;SDS011;44177;43.356;27.672;2022-12-16T08:27:59;24.65;;;11.18;;
58372;SDS011;44177;43.356;27.672;2022-12-16T08:30:43;25.17;;;11.30;;
58372;SDS011;44177;43.356;27.672;2022-12-16T08:33:32;21.77;;;11.57;;
58372;SDS011;44177;43.356;27.672;2022-12-16T08:36:16;28.30;;;12.85;;
58372;SDS011;44177;43.356;27.672;2022-12-16T08:39:00;24.83;;;12.50;;
58372;SDS011;44177;43.356;27.672;2022-12-16T08:41:45;25.52;;;13.05;;
58372;SDS011;44177;43.356;27.672;2022-12-16T08:44:28;24.65;;;13.02;;
58372;SDS011;44177;43.356;27.672;2022-12-16T08:47:12;24.75;;;13.95;;
58372;SDS011;44177;43.356;27.672;2022-12-16T08:49:56;25.58;;;13.95;;
58372;SDS011;44177;43.356;27.672;2022-12-16T08:52:40;28.02;;;15.13;;
58372;SDS011;44177;43.356;27.672;2022-12-16T08:55:24;28.42;;;16.00;;
58372;SDS011;44177;43.356;27.672;2022-12-16T08:58:08;27.23;;;15.35;;
58372;SDS011;44177;43.356;27.672;2022-12-16T09:00:52;27.38;;;14.40;;
58372;SDS011;44177;43.356;27.672;2022-12-16T09:03:36;26.58;;;13.02;;
58372;SDS011;44177;43.356;27.672;2022-12-16T09:06:20;25.02;;;12.55;;
58372;SDS011;44177;43.356;27.672;2022-12-16T09:09:04;20.27;;;12.07;;
58372;SDS011;44177;43.356;27.672;2022-12-16T09:11:48;26.67;;;14.05;;
58372;SDS011;44177;43.356;27.672;2022-12-16T09:14:32;26.60;;;13.27;;
58372;SDS011;44177;43.356;27.672;2022-12-16T09:17:16;22.38;;;12.52;;
58372;SDS011;44177;43.356;27.672;2022-12-16T09:20:00;23.17;;;12.50;;
58372;SDS011;44177;43.356;27.672;2022-12-16T09:22:44;21.02;;;12.32;;
58372;SDS011;44177;43.356;27.672;2022-12-16T09:25:35;23.00;;;12.38;;
58372;SDS011;44177;43.356;27.672;2022-12-16T09:28:19;20.83;;;11.27;;
58372;SDS011;44177;43.356;27.672;2022-12-16T09:31:03;19.50;;;10.85;;
58372;SDS011;44177;43.356;27.672;2022-12-16T09:33:47;19.75;;;10.82;;
58372;SDS011;44177;43.356;27.672;2022-12-16T09:36:31;19.38;;;10.30;;
58372;SDS011;44177;43.356;27.672;2022-12-16T09:39:15;16.40;;;9.75;;
58372;SDS011;44177;43.356;27.672;2022-12-16T09:42:01;20.42;;;10.05;;
58372;SDS011;44177;43.356;27.672;2022-12-16T09:45:39;18.08;;;10.45;;
58372;SDS011;44177;43.356;27.672;2022-12-16T09:51:17;20.23;;;10.75;;
58372;SDS011;44177;43.356;27.672;2022-12-16T09:54:03;18.92;;;12.55;;
58372;SDS011;44177;43.356;27.672;2022-12-16T09:56:47;16.77;;;10.63;;
58372;SDS011;44177;43.356;27.672;2022-12-16T09:59:41;14.20;;;9.50;;
58372;SDS011;44177;43.356;27.672;2022-12-16T10:02:32;13.43;;;8.40;;
58372;SDS011;44177;43.356;27.672;2022-12-16T10:05:17;15.50;;;8.75;;
58372;SDS011;44177;43.356;27.672;2022-12-16T10:11:10;15.23;;;7.35;;
58372;SDS011;44177;43.356;27.672;2022-12-16T10:23:09;10.18;;;7.55;;
58372;SDS011;44177;43.356;27.672;2022-12-16T10:25:51;14.70;;;7.28;;
58372;SDS011;44177;43.356;27.672;2022-12-16T10:28:44;10.27;;;6.47;;
58372;SDS011;44177;43.356;27.672;2022-12-16T10:31:31;11.43;;;6.30;;
58372;SDS011;44177;43.356;27.672;2022-12-16T10:34:17;12.60;;;6.95;;
58372;SDS011;44177;43.356;27.672;2022-12-16T10:37:03;13.82;;;7.18;;
58372;SDS011;44177;43.356;27.672;2022-12-16T10:39:57;13.73;;;6.63;;
58372;SDS011;44177;43.356;27.672;2022-12-16T10:42:45;11.70;;;6.65;;
58372;SDS011;44177;43.356;27.672;2022-12-16T10:45:45;11.63;;;6.68;;
58372;SDS011;44177;43.356;27.672;2022-12-16T10:48:33;15.85;;;7.32;;
58372;SDS011;44177;43.356;27.672;2022-12-16T10:51:21;15.52;;;7.10;;
58372;SDS011;44177;43.356;27.672;2022-12-16T11:00:20;16.80;;;7.60;;
58372;SDS011;44177;43.356;27.672;2022-12-16T11:03:22;13.65;;;7.70;;
58372;SDS011;44177;43.356;27.672;2022-12-16T11:06:09;15.02;;;7.85;;
58372;SDS011;44177;43.356;27.672;2022-12-16T11:08:59;14.90;;;8.63;;
58372;SDS011;44177;43.356;27.672;2022-12-16T11:12:28;15.15;;;8.05;;
58372;SDS011;44177;43.356;27.672;2022-12-16T11:18:05;18.73;;;8.85;;
58372;SDS011;44177;43.356;27.672;2022-12-16T11:21:16;13.30;;;8.23;;
58372;SDS011;44177;43.356;27.672;2022-12-16T11:24:20;15.65;;;8.05;;
58372;SDS011;44177;43.356;27.672;2022-12-16T11:27:09;15.13;;;8.20;;
58372;SDS011;44177;43.356;27.672;2022-12-16T11:29:58;18.80;;;8.55;;
58372;SDS011;44177;43.356;27.672;2022-12-16T11:32:49;18.63;;;8.25;;
58372;SDS011;44177;43.356;27.672;2022-12-16T11:35:37;18.92;;;8.30;;
58372;SDS011;44177;43.356;27.672;2022-12-16T11:38:28;16.83;;;8.68;;
58372;SDS011;44177;43.356;27.672;2022-12-16T11:41:35;18.05;;;9.32;;
58372;SDS011;44177;43.356;27.672;2022-12-16T11:44:27;17.45;;;9.13;;
58372;SDS011;44177;43.356;27.672;2022-12-16T11:50:35;18.35;;;8.88;;
58372;SDS011;44177;43.356;27.672;2022-12-16T11:56:31;36.10;;;19.60;;
58372;SDS011;44177;43.356;27.672;2022-12-16T12:02:32;38.35;;;17.23;;
58372;SDS011;44177;43.356;27.672;2022-12-16T12:12:23;31.50;;;12.77;;
58372;SDS011;44177;43.356;27.672;2022-12-16T12:18:07;32.05;;;11.70;;
58372;SDS011;44177;43.356;27.672;2022-12-16T12:21:29;34.92;;;12.90;;
58372;SDS011;44177;43.356;27.672;2022-12-16T12:30:08;33.83;;;9.75;;
58372;SDS011;44177;43.356;27.672;2022-12-16T12:32:59;40.50;;;11.40;;
58372;SDS011;44177;43.356;27.672;2022-12-16T12:36:06;31.95;;;10.90;;
58372;SDS011;44177;43.356;27.672;2022-12-16T12:38:59;46.87;;;12.33;;
58372;SDS011;44177;43.356;27.672;2022-12-16T12:41:56;51.53;;;12.32;;
58372;SDS011;44177;43.356;27.672;2022-12-16T12:45:14;62.10;;;12.15;;
58372;SDS011;44177;43.356;27.672;2022-12-16T12:51:43;84.53;;;12.80;;
58372;SDS011;44177;43.356;27.672;2022-12-16T12:56:51;61.70;;;11.65;;
58372;SDS011;44177;43.356;27.672;2022-12-16T12:59:40;73.25;;;11.20;;
58372;SDS011;44177;43.356;27.672;2022-12-16T13:05:47;62.28;;;10.38;;
58372;SDS011;44177;43.356;27.672;2022-12-16T13:08:54;67.93;;;10.57;;
58372;SDS011;44177;43.356;27.672;2022-12-16T13:14:51;49.92;;;9.50;;
58372;SDS011;44177;43.356;27.672;2022-12-16T13:20:49;44.00;;;8.60;;
58372;SDS011;44177;43.356;27.672;2022-12-16T13:23:35;47.10;;;8.85;;
58372;SDS011;44177;43.356;27.672;2022-12-16T13:26:22;23.90;;;7.32;;
58372;SDS011;44177;43.356;27.672;2022-12-16T13:29:27;36.22;;;7.90;;
58372;SDS011;44177;43.356;27.672;2022-12-16T13:43:50;24.83;;;7.10;;
58372;SDS011;44177;43.356;27.672;2022-12-16T13:46:47;22.55;;;6.72;;
58372;SDS011;44177;43.356;27.672;2022-12-16T13:52:20;31.83;;;7.40;;
58372;SDS011;44177;43.356;27.672;2022-12-16T13:55:22;25.25;;;7.00;;
58372;SDS011;44177;43.356;27.672;2022-12-16T13:58:16;17.83;;;6.55;;
58372;SDS011;44177;43.356;27.672;2022-12-16T14:01:13;16.73;;;6.63;;
58372;SDS011;44177;43.356;27.672;2022-12-16T14:04:01;14.10;;;6.30;;
58372;SDS011;44177;43.356;27.672;2022-12-16T14:06:51;20.10;;;5.93;;
58372;SDS011;44177;43.356;27.672;2022-12-16T14:09:36;18.02;;;6.55;;
58372;SDS011;44177;43.356;27.672;2022-12-16T14:12:31;16.48;;;5.63;;
58372;SDS011;44177;43.356;27.672;2022-12-16T14:15:54;17.30;;;6.70;;
58372;SDS011;44177;43.356;27.672;2022-12-16T14:22:23;14.02;;;5.18;;
58372;SDS011;44177;43.356;27.672;2022-12-16T14:25:19;14.48;;;6.00;;
58372;SDS011;44177;43.356;27.672;2022-12-16T14:28:07;14.27;;;5.68;;
58372;SDS011;44177;43.356;27.672;2022-12-16T14:31:04;15.30;;;5.78;;
58372;SDS011;44177;43.356;27.672;2022-12-16T14:33:54;11.27;;;5.55;;
58372;SDS011;44177;43.356;27.672;2022-12-16T14:36:38;10.02;;;5.53;;
58372;SDS011;44177;43.356;27.672;2022-12-16T14:39:29;11.35;;;5.70;;
58372;SDS011;44177;43.356;27.672;2022-12-16T14:42:18;9.65;;;5.53;;
58372;SDS011;44177;43.356;27.672;2022-12-16T14:45:03;13.05;;;5.50;;
58372;SDS011;44177;43.356;27.672;2022-12-16T14:47:48;10.55;;;5.43;;
58372;SDS011;44177;43.356;27.672;2022-12-16T14:50:32;12.23;;;5.32;;
58372;SDS011;44177;43.356;27.672;2022-12-16T14:53:21;9.23;;;5.60;;
58372;SDS011;44177;43.356;27.672;2022-12-16T14:56:19;11.32;;;6.00;;
58372;SDS011;44177;43.356;27.672;2022-12-16T14:59:14;13.02;;;5.72;;
58372;SDS011;44177;43.356;27.672;2022-12-16T15:02:07;13.25;;;5.20;;
58372;SDS011;44177;43.356;27.672;2022-12-16T15:05:06;11.27;;;5.90;;
58372;SDS011;44177;43.356;27.672;2022-12-16T15:07:50;8.32;;;5.20;;
58372;SDS011;44177;43.356;27.672;2022-12-16T15:10:34;9.90;;;5.10;;
58372;SDS011;44177;43.356;27.672;2022-12-16T15:13:18;12.70;;;5.85;;
58372;SDS011;44177;43.356;27.672;2022-12-16T15:16:02;12.43;;;5.40;;
58372;SDS011;44177;43.356;27.672;2022-12-16T15:21:39;11.30;;;5.15;;
58372;SDS011;44177;43.356;27.672;2022-12-16T15:24:24;11.40;;;5.28;;
58372;SDS011;44177;43.356;27.672;2022-12-16T15:33:30;8.53;;;5.53;;
58372;SDS011;44177;43.356;27.672;2022-12-16T15:39:22;8.48;;;5.78;;
58372;SDS011;44177;43.356;27.672;2022-12-16T15:42:24;8.93;;;6.00;;
58372;SDS011;44177;43.356;27.672;2022-12-16T15:45:17;9.05;;;5.30;;
58372;SDS011;44177;43.356;27.672;2022-12-16T15:51:03;8.73;;;5.40;;
58372;SDS011;44177;43.356;27.672;2022-12-16T15:53:59;8.57;;;5.07;;
58372;SDS011;44177;43.356;27.672;2022-12-16T15:56:45;8.35;;;5.30;;
58372;SDS011;44177;43.356;27.672;2022-12-16T15:59:54;8.25;;;5.10;;
58372;SDS011;44177;43.356;27.672;2022-12-16T16:02:44;7.10;;;5.10;;
58372;SDS011;44177;43.356;27.672;2022-12-16T16:05:38;9.77;;;5.47;;
58372;SDS011;44177;43.356;27.672;2022-12-16T16:08:22;9.90;;;5.32;;
58372;SDS011;44177;43.356;27.672;2022-12-16T16:11:06;9.10;;;5.13;;
58372;SDS011;44177;43.356;27.672;2022-12-16T16:13:50;7.13;;;5.55;;
58372;SDS011;44177;43.356;27.672;2022-12-16T16:16:34;6.90;;;4.85;;
58372;SDS011;44177;43.356;27.672;2022-12-16T16:19:20;12.43;;;5.15;;
58372;SDS011;44177;43.356;27.672;2022-12-16T16:22:10;9.52;;;4.85;;
58372;SDS011;44177;43.356;27.672;2022-12-16T16:24:56;7.47;;;4.63;;
58372;SDS011;44177;43.356;27.672;2022-12-16T16:27:40;9.05;;;4.95;;
58372;SDS011;44177;43.356;27.672;2022-12-16T16:30:25;8.35;;;5.43;;
58372;SDS011;44177;43.356;27.672;2022-12-16T16:33:09;9.23;;;5.30;;
58372;SDS011;44177;43.356;27.672;2022-12-16T16:35:53;8.43;;;5.20;;
58372;SDS011;44177;43.356;27.672;2022-12-16T16:38:37;7.68;;;4.72;;
58372;SDS011;44177;43.356;27.672;2022-12-16T16:41:21;9.00;;;5.40;;
58372;SDS011;44177;43.356;27.672;2022-12-16T16:44:05;7.32;;;4.82;;
58372;SDS011;44177;43.356;27.672;2022-12-16T16:46:49;10.80;;;5.18;;
58372;SDS011;44177;43.356;27.672;2022-12-16T16:49:35;8.50;;;4.68;;
58372;SDS011;44177;43.356;27.672;2022-12-16T16:52:23;9.30;;;4.63;;
58372;SDS011;44177;43.356;27.672;2022-12-16T16:55:12;7.32;;;5.30;;
58372;SDS011;44177;43.356;27.672;2022-12-16T16:58:05;9.30;;;5.05;;
58372;SDS011;44177;43.356;27.672;2022-12-16T17:00:54;7.57;;;4.93;;
58372;SDS011;44177;43.356;27.672;2022-12-16T17:03:38;8.93;;;5.07;;
58372;SDS011;44177;43.356;27.672;2022-12-16T17:06:22;6.75;;;4.88;;
58372;SDS011;44177;43.356;27.672;2022-12-16T17:09:06;7.10;;;4.55;;
58372;SDS011;44177;43.356;27.672;2022-12-16T17:11:50;7.40;;;4.80;;
58372;SDS011;44177;43.356;27.672;2022-12-16T17:14:34;9.52;;;5.43;;
58372;SDS011;44177;43.356;27.672;2022-12-16T17:17:18;6.65;;;4.72;;
58372;SDS011;44177;43.356;27.672;2022-12-16T17:20:02;9.95;;;5.22;;
58372;SDS011;44177;43.356;27.672;2022-12-16T17:22:47;8.00;;;5.32;;
58372;SDS011;44177;43.356;27.672;2022-12-16T17:25:31;6.57;;;4.50;;
58372;SDS011;44177;43.356;27.672;2022-12-16T17:28:14;6.88;;;5.07;;
58372;SDS011;44177;43.356;27.672;2022-12-16T17:30:58;9.25;;;5.38;;
58372;SDS011;44177;43.356;27.672;2022-12-16T17:33:42;8.52;;;4.65;;
58372;SDS011;44177;43.356;27.672;2022-12-16T17:36:26;8.05;;;4.82;;
58372;SDS011;44177;43.356;27.672;2022-12-16T17:39:10;10.05;;;5.35;;
58372;SDS011;44177;43.356;27.672;2022-12-16T17:41:54;8.15;;;5.03;;
58372;SDS011;44177;43.356;27.672;2022-12-16T17:44:38;9.43;;;5.53;;
58372;SDS011;44177;43.356;27.672;2022-12-16T17:47:22;8.18;;;4.90;;
58372;SDS011;44177;43.356;27.672;2022-12-16T17:50:06;9.30;;;5.15;;
58372;SDS011;44177;43.356;27.672;2022-12-16T17:52:54;7.82;;;4.53;;
58372;SDS011;44177;43.356;27.672;2022-12-16T17:55:39;8.25;;;4.50;;
58372;SDS011;44177;43.356;27.672;2022-12-16T17:58:30;7.95;;;4.97;;
58372;SDS011;44177;43.356;27.672;2022-12-16T18:01:15;7.40;;;4.97;;
58372;SDS011;44177;43.356;27.672;2022-12-16T18:03:59;7.30;;;5.00;;
58372;SDS011;44177;43.356;27.672;2022-12-16T18:06:43;7.93;;;5.07;;
58372;SDS011;44177;43.356;27.672;2022-12-16T18:09:27;9.98;;;5.18;;
58372;SDS011;44177;43.356;27.672;2022-12-16T18:12:11;9.02;;;5.03;;
58372;SDS011;44177;43.356;27.672;2022-12-16T18:14:55;6.70;;;4.80;;